Time;durP1;ratioP1;P1;durP2;ratioP2;P2;SDS_P1;SDS_P2;PMS_P1;PMS_P2;Temp;Humidity;BMP_temperature;BMP_pressure;BME280_temperature;BME280_humidity;BME280_pressure;Samples;Min_cycle;Max_cycle;Signal;HPM_P1;HPM_P2
2023/07/07 00:01:45;;;;;;;3.33;1.80;;;;;;;;;;6224959;28;20025;-68
2023/07/07 00:04:45;;;;;;;3.87;2.07;;;;;;;;;;6223689;28;20399;-68
2023/07/07 00:07:45;;;;;;;2.40;1.87;;;;;;;;;;6231082;28;20493;-69
2023/07/07 00:10:46;;;;;;;3.43;2.07;;;;;;;;;;6223568;28;20029;-70
2023/07/07 00:13:46;;;;;;;2.38;1.77;;;;;;;;;;6231160;28;20030;-70
2023/07/07 00:16:46;;;;;;;3.03;2.00;;;;;;;;;;6221804;28;20660;-69
2023/07/07 00:19:47;;;;;;;2.80;2.07;;;;;;;;;;6224661;28;20021;-69
2023/07/07 00:22:47;;;;;;;3.50;2.20;;;;;;;;;;6229867;28;20037;-70
2023/07/07 00:25:59;;;;;;;2.78;2.00;;;;;;;;;;6241418;28;20464;-70
2023/07/07 00:29:00;;;;;;;3.63;2.25;;;;;;;;;;6232915;28;20025;-71
2023/07/07 00:32:00;;;;;;;2.15;1.80;;;;;;;;;;6229693;28;20477;-69
2023/07/07 00:35:00;;;;;;;3.60;2.27;;;;;;;;;;6226717;28;20030;-70
2023/07/07 00:38:00;;;;;;;2.90;2.17;;;;;;;;;;6227395;28;20401;-71
2023/07/07 00:41:02;;;;;;;2.13;1.93;;;;;;;;;;6229156;28;20021;-70
2023/07/07 00:44:07;;;;;;;3.28;2.00;;;;;;;;;;6231212;28;20017;-70
2023/07/07 00:47:07;;;;;;;2.60;2.22;;;;;;;;;;6231900;28;20021;-70
2023/07/07 00:50:07;;;;;;;2.73;2.10;;;;;;;;;;6228844;28;20036;-70
2023/07/07 00:53:08;;;;;;;3.28;1.75;;;;;;;;;;6230891;28;20029;-69
2023/07/07 00:56:11;;;;;;;3.00;2.23;;;;;;;;;;6235900;28;20029;-69
2023/07/07 00:59:14;;;;;;;3.40;2.03;;;;;;;;;;6228907;28;20590;-69
2023/07/07 01:02:24;;;;;;;3.30;2.25;;;;;;;;;;6242035;28;20118;-68
2023/07/07 01:05:28;;;;;;;2.30;2.10;;;;;;;;;;6228095;28;20375;-67
2023/07/07 01:08:28;;;;;;;2.60;1.90;;;;;;;;;;6225884;28;20021;-68
2023/07/07 01:11:30;;;;;;;3.70;2.00;;;;;;;;;;6229253;28;20037;-69
2023/07/07 01:14:30;;;;;;;2.30;1.85;;;;;;;;;;6230249;28;20029;-68
2023/07/07 01:17:34;;;;;;;2.25;2.05;;;;;;;;;;6230319;28;20060;-68
2023/07/07 01:20:37;;;;;;;3.72;1.98;;;;;;;;;;6229910;28;20018;-69
2023/07/07 01:23:57;;;;;;;2.22;1.73;;;;;;;;;;6228283;28;20045;-69
2023/07/07 01:27:05;;;;;;;2.25;1.92;;;;;;;;;;6232675;28;20036;-69
2023/07/07 01:30:29;;;;;;;2.70;1.92;;;;;;;;;;6234228;28;20033;-69
2023/07/07 01:33:30;;;;;;;1.58;1.38;;;;;;;;;;6201612;28;20041;-69
2023/07/07 01:36:30;;;;;;;3.85;2.20;;;;;;;;;;6232436;28;20118;-69
2023/07/07 01:39:31;;;;;;;2.60;1.90;;;;;;;;;;6228751;28;20021;-69
2023/07/07 01:42:36;;;;;;;2.67;2.42;;;;;;;;;;6227155;28;20030;-69
2023/07/07 01:45:40;;;;;;;3.80;2.15;;;;;;;;;;6229753;28;20030;-69
2023/07/07 01:48:40;;;;;;;4.57;2.13;;;;;;;;;;6228791;28;20029;-69
2023/07/07 01:51:43;;;;;;;2.57;1.97;;;;;;;;;;6229169;28;20121;-68
2023/07/07 01:54:45;;;;;;;2.95;1.95;;;;;;;;;;6231889;28;20109;-68
2023/07/07 01:57:47;;;;;;;2.53;2.10;;;;;;;;;;6230193;28;20021;-68
2023/07/07 02:00:49;;;;;;;4.03;2.25;;;;;;;;;;6232593;28;22547;-68
2023/07/07 02:03:49;;;;;;;3.67;2.17;;;;;;;;;;6230102;28;20110;-70
2023/07/07 02:06:49;;;;;;;4.27;2.30;;;;;;;;;;6231523;28;20117;-67
2023/07/07 02:09:50;;;;;;;3.60;1.77;;;;;;;;;;6231541;28;20079;-68
2023/07/07 02:12:50;;;;;;;3.70;2.03;;;;;;;;;;6234149;28;20113;-69
2023/07/07 02:15:51;;;;;;;2.93;2.10;;;;;;;;;;6228782;28;20060;-70
2023/07/07 02:18:52;;;;;;;4.18;2.13;;;;;;;;;;6228242;28;20058;-71
2023/07/07 02:21:52;;;;;;;3.07;2.30;;;;;;;;;;6229708;28;20018;-69
2023/07/07 02:24:52;;;;;;;2.70;2.10;;;;;;;;;;6232754;28;22369;-66
2023/07/07 02:27:53;;;;;;;2.60;2.10;;;;;;;;;;6229893;28;20020;-68
2023/07/07 02:30:53;;;;;;;2.77;2.00;;;;;;;;;;6233068;28;20605;-69
2023/07/07 02:33:53;;;;;;;2.88;2.25;;;;;;;;;;6232384;28;20021;-68
2023/07/07 02:36:54;;;;;;;3.40;1.93;;;;;;;;;;6229091;28;20504;-68
2023/07/07 02:39:57;;;;;;;3.20;2.20;;;;;;;;;;6230923;28;20124;-70
2023/07/07 02:42:57;;;;;;;5.63;2.25;;;;;;;;;;6233020;28;20529;-69
2023/07/07 02:45:57;;;;;;;3.50;2.27;;;;;;;;;;6238045;28;20053;-67
2023/07/07 02:48:57;;;;;;;2.77;2.10;;;;;;;;;;6232386;28;20025;-69
2023/07/07 02:51:58;;;;;;;2.37;1.77;;;;;;;;;;6236563;28;20885;-68
2023/07/07 02:54:58;;;;;;;2.53;2.00;;;;;;;;;;6230604;28;20040;-69
2023/07/07 02:57:58;;;;;;;2.27;2.00;;;;;;;;;;6228664;28;20021;-68
2023/07/07 03:01:12;;;;;;;2.93;1.67;;;;;;;;;;6228395;28;20053;-69
2023/07/07 03:04:12;;;;;;;2.70;2.13;;;;;;;;;;6230826;28;20052;-68
2023/07/07 03:07:13;;;;;;;3.25;1.67;;;;;;;;;;6229255;28;20029;-68
2023/07/07 03:10:13;;;;;;;3.65;2.25;;;;;;;;;;6221923;28;20165;-69
2023/07/07 03:13:14;;;;;;;2.70;2.03;;;;;;;;;;6228506;28;20128;-69
2023/07/07 03:16:14;;;;;;;2.63;2.00;;;;;;;;;;6231267;28;20049;-69
2023/07/07 03:19:14;;;;;;;3.17;2.20;;;;;;;;;;6226925;28;20036;-69
2023/07/07 03:22:15;;;;;;;3.17;2.00;;;;;;;;;;6231926;28;20108;-69
2023/07/07 03:25:15;;;;;;;3.13;1.83;;;;;;;;;;6233250;28;20025;-66
2023/07/07 03:28:15;;;;;;;2.40;2.00;;;;;;;;;;6228754;28;20040;-68
2023/07/07 03:31:23;;;;;;;3.37;2.07;;;;;;;;;;6228781;28;20086;-68
2023/07/07 03:34:25;;;;;;;2.83;2.03;;;;;;;;;;6227276;28;20429;-70
2023/07/07 03:37:25;;;;;;;3.88;3.03;;;;;;;;;;6233593;28;20390;-68
2023/07/07 03:40:26;;;;;;;3.33;2.37;;;;;;;;;;6230920;28;20013;-69
2023/07/07 03:43:26;;;;;;;2.03;1.83;;;;;;;;;;6226774;28;20491;-68
2023/07/07 03:46:27;;;;;;;4.17;2.50;;;;;;;;;;6223048;28;20051;-68
2023/07/07 03:49:27;;;;;;;3.63;2.65;;;;;;;;;;6223966;28;20041;-69
2023/07/07 03:52:27;;;;;;;3.10;2.43;;;;;;;;;;6231849;28;20109;-69
2023/07/07 03:55:28;;;;;;;3.57;2.13;;;;;;;;;;6234728;28;20104;-68
2023/07/07 03:58:29;;;;;;;2.73;2.17;;;;;;;;;;6225612;28;20021;-70
2023/07/07 04:01:29;;;;;;;4.22;2.30;;;;;;;;;;6223115;28;20017;-70
2023/07/07 04:04:29;;;;;;;3.07;2.40;;;;;;;;;;6232383;28;20314;-70
2023/07/07 04:07:29;;;;;;;2.97;2.17;;;;;;;;;;6232651;28;20032;-70
2023/07/07 04:10:30;;;;;;;3.90;2.70;;;;;;;;;;6228722;28;20025;-69
2023/07/07 04:13:31;;;;;;;4.80;2.10;;;;;;;;;;6237970;28;20025;-70
2023/07/07 04:16:31;;;;;;;;;;;;;;;;;;6236859;28;20104;-71
2023/07/07 04:19:31;;;;;;;2.95;1.73;;;;;;;;;;6232990;28;19983;-69
2023/07/07 04:22:32;;;;;;;2.37;2.17;;;;;;;;;;6231394;28;20017;-70
2023/07/07 04:25:32;;;;;;;2.90;2.27;;;;;;;;;;6225772;28;20041;-70
2023/07/07 04:28:35;;;;;;;3.63;2.17;;;;;;;;;;6232638;28;20473;-70
2023/07/07 04:31:36;;;;;;;3.40;2.47;;;;;;;;;;6231756;28;20450;-72
2023/07/07 04:34:36;;;;;;;2.73;2.20;;;;;;;;;;6234393;28;20039;-70
2023/07/07 04:37:37;;;;;;;3.63;2.27;;;;;;;;;;6242496;28;20025;-71
2023/07/07 04:40:37;;;;;;;8.55;2.63;;;;;;;;;;6252674;28;20052;-70
2023/07/07 04:43:39;;;;;;;3.03;1.77;;;;;;;;;;5897980;28;10000670;-69
2023/07/07 04:46:40;;;;;;;3.75;2.25;;;;;;;;;;6243010;28;20476;-70
2023/07/07 04:49:40;;;;;;;3.40;2.28;;;;;;;;;;6228857;28;20549;-70
2023/07/07 04:52:41;;;;;;;2.67;2.10;;;;;;;;;;6230176;28;20115;-70
2023/07/07 04:55:42;;;;;;;3.92;2.17;;;;;;;;;;6220532;28;20475;-70
2023/07/07 04:58:43;;;;;;;3.42;1.90;;;;;;;;;;6220008;28;20200;-68
2023/07/07 05:01:43;;;;;;;2.90;2.17;;;;;;;;;;6220162;28;20013;-70
2023/07/07 05:04:44;;;;;;;4.10;2.10;;;;;;;;;;6227233;28;20033;-67
2023/07/07 05:07:44;;;;;;;2.93;2.17;;;;;;;;;;6229265;28;20076;-64
2023/07/07 05:10:47;;;;;;;3.60;2.33;;;;;;;;;;6235672;28;20112;-65
2023/07/07 05:13:48;;;;;;;3.70;2.13;;;;;;;;;;6235963;28;20026;-64
2023/07/07 05:16:48;;;;;;;;;;;;;;;;;;6219923;28;20039;-64
2023/07/07 05:19:48;;;;;;;3.53;1.98;;;;;;;;;;6223737;28;19916;-63
2023/07/07 05:22:48;;;;;;;3.30;2.20;;;;;;;;;;6228423;28;20397;-65
2023/07/07 05:25:49;;;;;;;3.10;2.00;;;;;;;;;;6227800;28;20037;-65
2023/07/07 05:28:53;;;;;;;3.88;2.30;;;;;;;;;;6232658;28;20056;-65
2023/07/07 05:31:53;;;;;;;3.75;2.22;;;;;;;;;;6227976;28;20037;-65
2023/07/07 05:34:53;;;;;;;2.20;1.97;;;;;;;;;;6225573;28;20025;-63
2023/07/07 05:37:53;;;;;;;2.50;2.17;;;;;;;;;;6231258;28;20452;-64
2023/07/07 05:40:54;;;;;;;3.47;2.40;;;;;;;;;;6234223;28;20028;-64
2023/07/07 05:43:55;;;;;;;;;;;;;;;;;;6229273;28;20167;-64
2023/07/07 05:46:55;;;;;;;2.23;1.70;;;;;;;;;;6231375;28;20000;-65
2023/07/07 05:49:56;;;;;;;3.03;2.17;;;;;;;;;;6220136;28;20384;-65
2023/07/07 05:52:56;;;;;;;;;;;;;;;;;;6223660;28;20026;-64
2023/07/07 05:56:03;;;;;;;2.70;1.92;;;;;;;;;;6222920;28;19925;-64
2023/07/07 05:59:03;;;;;;;4.28;2.65;;;;;;;;;;6225403;28;20028;-62
2023/07/07 06:02:03;;;;;;;;;;;;;;;;;;6224497;28;20374;-61
2023/07/07 06:05:03;;;;;;;2.58;1.88;;;;;;;;;;6221717;28;20054;-65
2023/07/07 06:08:04;;;;;;;;;;;;;;;;;;6224940;28;20028;-64
2023/07/07 06:11:04;;;;;;;2.27;1.73;;;;;;;;;;6230897;28;20412;-63
2023/07/07 06:14:04;;;;;;;;;;;;;;;;;;6223859;28;20025;-63
2023/07/07 06:17:05;;;;;;;2.25;1.63;;;;;;;;;;6230263;28;19930;-64
2023/07/07 06:20:05;;;;;;;;;;;;;;;;;;6231466;28;20033;-64
2023/07/07 06:23:08;;;;;;;5.28;2.00;;;;;;;;;;6228777;28;20011;-63
2023/07/07 06:26:08;;;;;;;3.88;2.13;;;;;;;;;;6232587;28;20033;-63
2023/07/07 06:29:08;;;;;;;;;;;;;;;;;;6230293;28;20066;-65
2023/07/07 06:32:08;;;;;;;2.17;1.95;;;;;;;;;;6227259;28;20460;-63
2023/07/07 06:35:09;;;;;;;;;;;;;;;;;;6228752;28;20033;-63
2023/07/07 06:38:09;;;;;;;2.50;1.90;;;;;;;;;;6228305;28;19921;-64
2023/07/07 06:41:10;;;;;;;2.53;2.10;;;;;;;;;;6227561;28;20032;-63
2023/07/07 06:44:11;;;;;;;4.30;2.70;;;;;;;;;;6226102;28;20047;-64
2023/07/07 06:47:13;;;;;;;4.30;2.80;;;;;;;;;;6227525;28;20029;-66
2023/07/07 06:50:16;;;;;;;5.03;2.63;;;;;;;;;;6229522;28;20036;-62
2023/07/07 06:53:16;;;;;;;4.20;2.80;;;;;;;;;;6226727;28;20522;-62
2023/07/07 06:56:16;;;;;;;3.80;2.83;;;;;;;;;;6230646;28;20086;-61
2023/07/07 06:59:17;;;;;;;3.23;2.30;;;;;;;;;;6230743;28;20288;-63
2023/07/07 07:02:17;;;;;;;3.60;2.63;;;;;;;;;;6226741;28;20049;-63
2023/07/07 07:05:17;;;;;;;3.60;2.43;;;;;;;;;;6227828;28;20432;-63
2023/07/07 07:08:17;;;;;;;3.23;2.50;;;;;;;;;;6232076;28;20302;-62
2023/07/07 07:11:18;;;;;;;2.73;2.50;;;;;;;;;;6200754;28;20693;-63
2023/07/07 07:14:18;;;;;;;2.80;2.40;;;;;;;;;;6185639;28;20021;-64
2023/07/07 07:17:18;;;;;;;3.28;2.60;;;;;;;;;;6189951;28;20040;-63
2023/07/07 07:20:19;;;;;;;6.65;2.72;;;;;;;;;;6198707;28;20134;-65
2023/07/07 07:23:19;;;;;;;3.60;2.20;;;;;;;;;;6195338;28;20767;-64
2023/07/07 07:26:19;;;;;;;3.05;2.05;;;;;;;;;;6195930;28;20549;-63
2023/07/07 07:29:20;;;;;;;3.53;2.60;;;;;;;;;;6195618;28;20160;-63
2023/07/07 07:32:20;;;;;;;2.43;2.07;;;;;;;;;;6190532;28;20413;-61
2023/07/07 07:35:20;;;;;;;2.80;2.53;;;;;;;;;;6198264;28;20846;-67
2023/07/07 07:38:21;;;;;;;2.45;1.92;;;;;;;;;;6195607;28;20033;-67
2023/07/07 07:41:21;;;;;;;2.95;2.53;;;;;;;;;;6189563;28;20037;-64
2023/07/07 07:44:22;;;;;;;2.65;2.38;;;;;;;;;;5505361;28;10021553;-64
2023/07/07 07:47:22;;;;;;;2.90;2.22;;;;;;;;;;6196087;28;20530;-63
2023/07/07 07:50:23;;;;;;;4.40;2.08;;;;;;;;;;5854526;28;10000603;-63
2023/07/07 07:53:23;;;;;;;2.15;1.95;;;;;;;;;;6194923;28;20254;-62
2023/07/07 07:56:23;;;;;;;2.90;2.30;;;;;;;;;;6210166;28;20096;-64
2023/07/07 07:59:23;;;;;;;3.30;2.13;;;;;;;;;;6193155;28;20083;-65
2023/07/07 08:02:24;;;;;;;2.30;2.10;;;;;;;;;;6192345;28;20486;-65
2023/07/07 08:05:24;;;;;;;3.15;2.13;;;;;;;;;;6203747;28;20033;-70
2023/07/07 08:08:24;;;;;;;6.13;2.95;;;;;;;;;;6199452;28;20536;-70
2023/07/07 08:11:40;;;;;;;4.15;2.90;;;;;;;;;;6194042;28;20144;-70
2023/07/07 08:14:40;;;;;;;2.70;2.40;;;;;;;;;;6199057;28;21257;-70
2023/07/07 08:17:40;;;;;;;2.47;2.13;;;;;;;;;;6207575;28;20513;-68
2023/07/07 08:20:41;;;;;;;2.73;2.03;;;;;;;;;;6198352;28;20148;-68
2023/07/07 08:23:41;;;;;;;3.47;2.10;;;;;;;;;;6203217;28;20029;-72
2023/07/07 08:26:41;;;;;;;3.45;2.53;;;;;;;;;;6203345;28;20033;-68
2023/07/07 08:29:42;;;;;;;3.78;2.67;;;;;;;;;;6196479;28;20237;-70
2023/07/07 08:32:42;;;;;;;2.65;2.10;;;;;;;;;;6196322;28;20025;-66
2023/07/07 08:35:42;;;;;;;2.70;2.40;;;;;;;;;;6194153;28;20080;-68
2023/07/07 08:38:43;;;;;;;2.80;2.23;;;;;;;;;;6195073;28;20294;-67
2023/07/07 08:41:49;;;;;;;3.67;2.20;;;;;;;;;;6194166;28;20025;-70
2023/07/07 08:44:50;;;;;;;4.85;2.45;;;;;;;;;;6207908;28;20116;-70
2023/07/07 08:47:59;;;;;;;3.20;2.35;;;;;;;;;;6193418;28;20025;-68
2023/07/07 08:51:01;;;;;;;4.65;2.55;;;;;;;;;;6196623;28;20100;-67
2023/07/07 08:54:24;;;;;;;5.25;2.38;;;;;;;;;;6199138;28;21486;-66
2023/07/07 08:57:28;;;;;;;3.45;2.40;;;;;;;;;;6182863;28;20045;-67
2023/07/07 09:00:36;;;;;;;2.72;2.33;;;;;;;;;;6198877;28;20026;-69
2023/07/07 09:03:55;;;;;;;3.03;2.35;;;;;;;;;;6210331;28;20116;-68
2023/07/07 09:07:16;;;;;;;3.35;2.42;;;;;;;;;;6199937;28;20361;-68
2023/07/07 09:10:28;;;;;;;4.25;2.80;;;;;;;;;;6208565;28;20065;-68
2023/07/07 09:13:30;;;;;;;3.88;2.40;;;;;;;;;;6189104;28;20509;-69
2023/07/07 09:16:34;;;;;;;3.42;2.60;;;;;;;;;;6195820;28;20040;-68
2023/07/07 09:19:37;;;;;;;3.03;2.40;;;;;;;;;;6191745;28;20057;-66
2023/07/07 09:22:47;;;;;;;2.65;2.28;;;;;;;;;;6191207;28;20036;-69
2023/07/07 09:25:52;;;;;;;3.83;2.35;;;;;;;;;;6195731;28;21335;-69
2023/07/07 09:28:54;;;;;;;3.17;2.15;;;;;;;;;;6200459;28;20044;-66
2023/07/07 09:31:54;;;;;;;3.67;1.98;;;;;;;;;;6190320;28;20077;-69
2023/07/07 09:34:55;;;;;;;2.58;1.80;;;;;;;;;;6187565;28;20452;-70
2023/07/07 09:38:10;;;;;;;4.72;2.55;;;;;;;;;;6193848;28;20025;-69
2023/07/07 09:41:29;;;;;;;4.15;2.20;;;;;;;;;;6193657;28;20116;-68
2023/07/07 09:44:30;;;;;;;2.20;1.98;;;;;;;;;;6208597;28;20030;-69
2023/07/07 09:47:45;;;;;;;2.88;2.20;;;;;;;;;;5516841;28;10002204;-68
2023/07/07 09:50:56;;;;;;;2.20;2.00;;;;;;;;;;6203162;28;21614;-69
2023/07/07 09:53:56;;;;;;;3.35;2.35;;;;;;;;;;6201163;28;20320;-69
2023/07/07 09:56:58;;;;;;;3.93;2.20;;;;;;;;;;6199735;28;20043;-69
2023/07/07 09:59:59;;;;;;;2.05;1.85;;;;;;;;;;6201631;28;20911;-69
2023/07/07 10:02:59;;;;;;;3.08;1.95;;;;;;;;;;6203976;28;20482;-69
2023/07/07 10:06:04;;;;;;;2.50;2.30;;;;;;;;;;6198670;28;20500;-69
2023/07/07 10:09:08;;;;;;;2.30;1.92;;;;;;;;;;6215469;28;20056;-68
2023/07/07 10:12:13;;;;;;;2.45;2.25;;;;;;;;;;6199895;28;20025;-68
2023/07/07 10:15:20;;;;;;;5.10;2.40;;;;;;;;;;6197703;28;20418;-68
2023/07/07 10:18:24;;;;;;;3.70;2.45;;;;;;;;;;6200785;28;20021;-69
2023/07/07 10:21:24;;;;;;;3.25;2.70;;;;;;;;;;6200472;28;20061;-68
2023/07/07 10:24:27;;;;;;;2.33;2.13;;;;;;;;;;6196986;28;20029;-69
2023/07/07 10:27:27;;;;;;;2.80;2.20;;;;;;;;;;6199085;28;20787;-70
2023/07/07 10:30:29;;;;;;;2.20;2.00;;;;;;;;;;6199338;28;20083;-69
2023/07/07 10:33:29;;;;;;;3.35;2.00;;;;;;;;;;6195772;28;20038;-68
2023/07/07 10:36:31;;;;;;;1.92;1.80;;;;;;;;;;6198166;28;20180;-69
2023/07/07 10:39:31;;;;;;;3.67;2.10;;;;;;;;;;6196272;28;20120;-70
2023/07/07 10:42:32;;;;;;;2.20;2.00;;;;;;;;;;6194428;28;20700;-68
2023/07/07 10:45:32;;;;;;;2.45;2.20;;;;;;;;;;6195629;28;20018;-69
2023/07/07 10:48:32;;;;;;;4.80;2.17;;;;;;;;;;6196551;28;20116;-68
2023/07/07 10:51:39;;;;;;;2.50;1.80;;;;;;;;;;6196831;28;20359;-70
2023/07/07 10:54:45;;;;;;;2.83;2.10;;;;;;;;;;6196554;28;20038;-70
2023/07/07 10:58:04;;;;;;;2.63;2.00;;;;;;;;;;6197752;28;20160;-68
2023/07/07 11:01:15;;;;;;;3.45;1.90;;;;;;;;;;6194196;28;20162;-68
2023/07/07 11:04:22;;;;;;;1.95;1.85;;;;;;;;;;6193941;28;20353;-70
2023/07/07 11:07:25;;;;;;;2.20;2.00;;;;;;;;;;6198366;28;20508;-69
2023/07/07 11:10:52;;;;;;;2.45;2.08;;;;;;;;;;6197995;28;20677;-71
2023/07/07 11:14:21;;;;;;;2.13;1.95;;;;;;;;;;6195780;28;20562;-69
2023/07/07 11:17:40;;;;;;;1.65;1.55;;;;;;;;;;6129504;28;20033;-69
2023/07/07 11:20:46;;;;;;;2.97;2.13;;;;;;;;;;6200643;28;20026;-70
2023/07/07 11:23:47;;;;;;;3.63;2.10;;;;;;;;;;6201801;28;21719;-67
2023/07/07 11:27:02;;;;;;;2.20;2.00;;;;;;;;;;6202614;28;20033;-69
2023/07/07 11:30:13;;;;;;;2.78;1.88;;;;;;;;;;6200495;28;20029;-68
2023/07/07 11:33:13;;;;;;;2.08;1.98;;;;;;;;;;6201083;28;20112;-70
2023/07/07 11:36:19;;;;;;;1.97;1.87;;;;;;;;;;6193996;28;20029;-67
2023/07/07 11:39:28;;;;;;;2.45;2.00;;;;;;;;;;6197031;28;20091;-69
2023/07/07 11:42:31;;;;;;;2.15;1.95;;;;;;;;;;6195942;28;20155;-70
2023/07/07 11:45:36;;;;;;;2.05;1.90;;;;;;;;;;6196395;28;20033;-71
2023/07/07 11:48:40;;;;;;;2.30;1.98;;;;;;;;;;6196876;28;20206;-69
2023/07/07 11:51:45;;;;;;;2.00;1.90;;;;;;;;;;6198320;28;20032;-73
2023/07/07 11:55:04;;;;;;;2.13;2.00;;;;;;;;;;6202109;28;20051;-71
2023/07/07 11:58:23;;;;;;;1.90;1.80;;;;;;;;;;6213513;28;20091;-69
2023/07/07 12:01:32;;;;;;;2.03;1.92;;;;;;;;;;6209689;28;20128;-70
2023/07/07 12:04:38;;;;;;;2.35;2.05;;;;;;;;;;6207154;28;20021;-69
2023/07/07 12:07:51;;;;;;;2.20;2.10;;;;;;;;;;6220015;28;20049;-70
2023/07/07 12:10:55;;;;;;;2.25;2.05;;;;;;;;;;6223254;28;20090;-67
2023/07/07 12:13:58;;;;;;;3.20;2.15;;;;;;;;;;6227162;28;20034;-70
2023/07/07 12:16:59;;;;;;;2.35;2.15;;;;;;;;;;6227247;28;20385;-69
2023/07/07 12:20:03;;;;;;;2.17;1.80;;;;;;;;;;6229759;28;20033;-69
2023/07/07 12:23:04;;;;;;;2.30;2.10;;;;;;;;;;6227567;28;20057;-70
2023/07/07 12:26:05;;;;;;;1.85;1.73;;;;;;;;;;6226479;28;20033;-69
2023/07/07 12:29:05;;;;;;;2.97;2.00;;;;;;;;;;6227840;28;20537;-69
2023/07/07 12:32:06;;;;;;;2.38;1.85;;;;;;;;;;6227392;28;20058;-69
2023/07/07 12:35:12;;;;;;;2.10;1.95;;;;;;;;;;6228386;28;20074;-68
2023/07/07 12:38:20;;;;;;;2.30;2.10;;;;;;;;;;6227473;28;20108;-69
2023/07/07 12:41:24;;;;;;;2.55;2.35;;;;;;;;;;6227591;28;20048;-69
2023/07/07 12:44:25;;;;;;;2.30;2.20;;;;;;;;;;6229259;28;20328;-68
2023/07/07 12:47:30;;;;;;;2.75;2.55;;;;;;;;;;6246150;28;20049;-70
2023/07/07 12:50:42;;;;;;;2.55;2.40;;;;;;;;;;6235189;28;20036;-70
2023/07/07 12:53:47;;;;;;;2.45;2.35;;;;;;;;;;6236164;28;20025;-71
2023/07/07 12:56:57;;;;;;;3.08;2.88;;;;;;;;;;6233504;28;20496;-71
2023/07/07 13:00:16;;;;;;;3.90;3.03;;;;;;;;;;6235247;28;20025;-70
2023/07/07 13:03:20;;;;;;;2.75;2.55;;;;;;;;;;6236979;28;20057;-70
2023/07/07 13:06:25;;;;;;;2.88;2.78;;;;;;;;;;6237733;28;20102;-70
2023/07/07 13:09:26;;;;;;;3.50;3.30;;;;;;;;;;6238514;28;20056;-71
2023/07/07 13:12:39;;;;;;;3.35;3.17;;;;;;;;;;6240409;28;20026;-71
2023/07/07 13:15:39;;;;;;;3.58;3.38;;;;;;;;;;6238018;28;20032;-70
2023/07/07 13:18:39;;;;;;;2.60;2.47;;;;;;;;;;6238830;28;20022;-71
2023/07/07 13:21:40;;;;;;;2.80;2.60;;;;;;;;;;6240593;28;20021;-70
2023/07/07 13:24:41;;;;;;;3.10;2.90;;;;;;;;;;6241650;28;20033;-70
2023/07/07 13:27:41;;;;;;;3.05;2.85;;;;;;;;;;6243984;28;20112;-71
2023/07/07 13:30:43;;;;;;;3.27;2.97;;;;;;;;;;6228243;28;20036;-70
2023/07/07 13:33:43;;;;;;;3.70;3.50;;;;;;;;;;6235779;28;20029;-69
2023/07/07 13:36:44;;;;;;;3.10;3.00;;;;;;;;;;6236629;28;20087;-69
2023/07/07 13:39:44;;;;;;;4.07;3.80;;;;;;;;;;6233867;28;20852;-71
2023/07/07 13:42:50;;;;;;;4.03;3.80;;;;;;;;;;6231221;28;20401;-70
2023/07/07 13:45:53;;;;;;;5.17;4.80;;;;;;;;;;6229701;28;20043;-68
2023/07/07 13:48:58;;;;;;;4.85;4.63;;;;;;;;;;6229262;28;20017;-69
2023/07/07 13:51:58;;;;;;;4.88;4.68;;;;;;;;;;6235942;28;20025;-69
2023/07/07 13:54:58;;;;;;;5.43;5.13;;;;;;;;;;6241092;28;20014;-70
2023/07/07 13:57:59;;;;;;;5.53;5.23;;;;;;;;;;6232074;28;20021;-69
2023/07/07 14:01:00;;;;;;;5.28;5.07;;;;;;;;;;6231050;28;20036;-69
2023/07/07 14:04:01;;;;;;;6.40;6.10;;;;;;;;;;6233417;28;20398;-70
2023/07/07 14:07:02;;;;;;;6.22;5.93;;;;;;;;;;6243369;28;20485;-70
2023/07/07 14:10:12;;;;;;;6.95;6.55;;;;;;;;;;6236607;28;20352;-69
2023/07/07 14:13:14;;;;;;;6.95;6.45;;;;;;;;;;6235860;28;20362;-69
2023/07/07 14:16:18;;;;;;;6.53;6.13;;;;;;;;;;6230610;28;20025;-69
2023/07/07 14:19:35;;;;;;;7.20;6.82;;;;;;;;;;6231214;28;20124;-69
2023/07/07 14:22:36;;;;;;;7.75;7.25;;;;;;;;;;6233979;28;20632;-69
2023/07/07 14:25:39;;;;;;;7.15;6.85;;;;;;;;;;6229684;28;20029;-68
2023/07/07 14:28:39;;;;;;;7.38;6.97;;;;;;;;;;6226718;28;20021;-68
2023/07/07 14:31:39;;;;;;;5.70;5.40;;;;;;;;;;6226598;28;20037;-69
2023/07/07 14:34:45;;;;;;;4.07;3.77;;;;;;;;;;6231645;28;20457;-69
2023/07/07 14:37:48;;;;;;;3.88;3.65;;;;;;;;;;6230588;28;20021;-72
2023/07/07 14:40:49;;;;;;;3.60;3.40;;;;;;;;;;6226295;28;20122;-74
2023/07/07 14:43:49;;;;;;;4.10;3.90;;;;;;;;;;6226185;28;20021;-72
2023/07/07 14:46:50;;;;;;;4.50;4.30;;;;;;;;;;6227686;28;20036;-74
2023/07/07 14:49:50;;;;;;;5.05;4.80;;;;;;;;;;6232268;28;20049;-72
2023/07/07 14:52:52;;;;;;;5.90;5.60;;;;;;;;;;6230769;28;20017;-73
2023/07/07 14:55:53;;;;;;;5.78;5.38;;;;;;;;;;6230760;28;20147;-73
2023/07/07 14:58:58;;;;;;;4.72;4.53;;;;;;;;;;6233890;28;20040;-72
2023/07/07 15:01:59;;;;;;;5.07;4.80;;;;;;;;;;5534257;28;10000774;-72
2023/07/07 15:05:18;;;;;;;5.18;4.88;;;;;;;;;;6238714;28;20021;-72
2023/07/07 15:08:18;;;;;;;5.30;4.93;;;;;;;;;;6242838;28;20366;-73
2023/07/07 15:11:27;;;;;;;4.70;4.50;;;;;;;;;;6240390;28;20024;-73
2023/07/07 15:14:28;;;;;;;4.93;4.65;;;;;;;;;;6245377;28;20026;-73
2023/07/07 15:17:28;;;;;;;4.60;4.40;;;;;;;;;;6244917;28;20071;-72
2023/07/07 15:20:28;;;;;;;4.43;4.03;;;;;;;;;;6246069;28;20029;-72
2023/07/07 15:23:28;;;;;;;4.07;3.87;;;;;;;;;;6240415;28;20021;-71
2023/07/07 15:26:30;;;;;;;3.93;3.73;;;;;;;;;;6242275;28;20047;-71
2023/07/07 15:29:31;;;;;;;3.80;3.50;;;;;;;;;;6247129;28;20021;-70
2023/07/07 15:32:32;;;;;;;3.38;3.17;;;;;;;;;;6247945;28;20126;-72
2023/07/07 15:35:32;;;;;;;3.23;3.03;;;;;;;;;;6245153;28;20035;-72
2023/07/07 15:38:41;;;;;;;3.15;2.90;;;;;;;;;;6245778;28;20276;-71
2023/07/07 15:41:42;;;;;;;2.58;2.38;;;;;;;;;;6244631;28;20442;-72
2023/07/07 15:44:42;;;;;;;1.90;1.80;;;;;;;;;;6241689;28;20045;-72
2023/07/07 15:47:43;;;;;;;1.90;1.70;;;;;;;;;;6245664;28;20030;-74
2023/07/07 15:50:43;;;;;;;1.90;1.73;;;;;;;;;;6244295;28;20053;-74
2023/07/07 15:53:44;;;;;;;1.70;1.60;;;;;;;;;;6243768;28;20423;-73
2023/07/07 15:56:45;;;;;;;1.93;1.40;;;;;;;;;;6240434;28;20272;-73
2023/07/07 15:59:45;;;;;;;3.65;1.60;;;;;;;;;;6245291;28;20028;-73
2023/07/07 16:02:45;;;;;;;2.10;1.40;;;;;;;;;;6243834;28;20029;-73
2023/07/07 16:05:46;;;;;;;1.57;1.40;;;;;;;;;;6244920;28;20088;-73
2023/07/07 16:08:46;;;;;;;1.77;1.42;;;;;;;;;;6235600;28;20103;-72
2023/07/07 16:11:47;;;;;;;1.45;1.33;;;;;;;;;;6243379;28;20060;-73
2023/07/07 16:14:47;;;;;;;1.93;1.40;;;;;;;;;;6243723;28;20021;-73
2023/07/07 16:17:47;;;;;;;2.10;1.30;;;;;;;;;;6244434;28;20070;-72
2023/07/07 16:20:48;;;;;;;1.37;1.27;;;;;;;;;;6244372;28;20021;-72
2023/07/07 16:23:49;;;;;;;2.00;1.30;;;;;;;;;;6241609;28;20021;-72
2023/07/07 16:26:51;;;;;;;2.85;1.45;;;;;;;;;;6243773;28;20025;-72
2023/07/07 16:29:51;;;;;;;3.33;1.70;;;;;;;;;;6245145;28;20383;-73
2023/07/07 16:32:51;;;;;;;2.30;1.60;;;;;;;;;;6238834;28;20017;-74
2023/07/07 16:35:52;;;;;;;2.20;1.57;;;;;;;;;;6243806;28;20079;-72
2023/07/07 16:38:52;;;;;;;1.58;1.45;;;;;;;;;;6245699;28;20025;-72
2023/07/07 16:41:52;;;;;;;2.00;1.58;;;;;;;;;;6244213;28;20021;-73
2023/07/07 16:44:53;;;;;;;1.63;1.50;;;;;;;;;;6240769;28;20075;-72
2023/07/07 16:47:53;;;;;;;3.20;1.50;;;;;;;;;;6243448;28;20140;-72
2023/07/07 16:50:55;;;;;;;1.47;1.27;;;;;;;;;;6242496;28;20032;-72
2023/07/07 16:53:55;;;;;;;2.63;1.70;;;;;;;;;;6243744;28;20040;-73
2023/07/07 16:56:56;;;;;;;1.77;1.67;;;;;;;;;;6243709;28;20081;-74
2023/07/07 16:59:56;;;;;;;1.95;1.60;;;;;;;;;;6250757;28;20063;-74
2023/07/07 17:02:56;;;;;;;1.58;1.48;;;;;;;;;;5902654;28;10000170;-73
2023/07/07 17:05:57;;;;;;;1.67;1.40;;;;;;;;;;6243729;28;20033;-71
2023/07/07 17:08:58;;;;;;;2.75;1.50;;;;;;;;;;6249519;28;20013;-73
2023/07/07 17:11:58;;;;;;;1.98;1.38;;;;;;;;;;6244624;28;20017;-73
2023/07/07 17:14:59;;;;;;;1.50;1.30;;;;;;;;;;6244634;28;20486;-72
2023/07/07 17:17:59;;;;;;;2.47;1.55;;;;;;;;;;6244997;28;20021;-72
2023/07/07 17:20:59;;;;;;;1.60;1.50;;;;;;;;;;6244654;28;20116;-71
2023/07/07 17:23:59;;;;;;;1.40;1.30;;;;;;;;;;6239066;28;20040;-72
2023/07/07 17:27:00;;;;;;;2.57;1.70;;;;;;;;;;6244234;28;20028;-72
2023/07/07 17:30:00;;;;;;;1.70;1.40;;;;;;;;;;6243381;28;20018;-72
2023/07/07 17:33:00;;;;;;;4.13;1.50;;;;;;;;;;6243500;28;20018;-72
2023/07/07 17:36:02;;;;;;;1.83;1.40;;;;;;;;;;6230540;28;20021;-71
2023/07/07 17:39:03;;;;;;;2.50;1.60;;;;;;;;;;6242488;28;20022;-72
2023/07/07 17:42:03;;;;;;;1.98;1.30;;;;;;;;;;6241479;28;20466;-72
2023/07/07 17:45:04;;;;;;;1.98;1.55;;;;;;;;;;6242143;28;20021;-72
2023/07/07 17:48:08;;;;;;;1.65;1.50;;;;;;;;;;6238408;28;20049;-71
2023/07/07 17:51:09;;;;;;;3.60;1.67;;;;;;;;;;6238136;28;20144;-71
2023/07/07 17:54:10;;;;;;;1.92;1.52;;;;;;;;;;6244566;28;20139;-71
2023/07/07 17:57:12;;;;;;;4.07;1.75;;;;;;;;;;6239299;28;20474;-71
2023/07/07 18:00:12;;;;;;;3.05;1.58;;;;;;;;;;6242623;28;20029;-72
2023/07/07 18:03:12;;;;;;;4.87;2.00;;;;;;;;;;6240276;28;20055;-72
2023/07/07 18:06:16;;;;;;;1.70;1.60;;;;;;;;;;6244066;28;20259;-71
2023/07/07 18:09:16;;;;;;;1.90;1.70;;;;;;;;;;6239869;28;20036;-71
2023/07/07 18:12:17;;;;;;;4.82;3.63;;;;;;;;;;6239058;28;20688;-72
2023/07/07 18:15:17;;;;;;;4.43;4.03;;;;;;;;;;6246482;28;20099;-72
2023/07/07 18:18:17;;;;;;;2.80;2.53;;;;;;;;;;6245554;28;20190;-72